sensor_id;sensor_type;location;lat;lon;timestamp;temperature;humidity
19214;DHT22;9741;51.020;5.304;2022-11-20T00:01:40;4.80;68.20
19214;DHT22;9741;51.020;5.304;2022-11-20T00:04:12;4.80;68.20
19214;DHT22;9741;51.020;5.304;2022-11-20T00:06:40;4.80;68.20
19214;DHT22;9741;51.020;5.304;2022-11-20T00:09:11;4.70;68.10
19214;DHT22;9741;51.020;5.304;2022-11-20T00:11:43;4.70;68.10
19214;DHT22;9741;51.020;5.304;2022-11-20T00:14:14;4.70;68.30
19214;DHT22;9741;51.020;5.304;2022-11-20T00:16:43;4.70;68.30
19214;DHT22;9741;51.020;5.304;2022-11-20T00:19:11;4.70;68.30
19214;DHT22;9741;51.020;5.304;2022-11-20T00:21:39;4.70;68.30
19214;DHT22;9741;51.020;5.304;2022-11-20T00:24:09;4.70;68.30
19214;DHT22;9741;51.020;5.304;2022-11-20T00:26:36;4.70;68.30
19214;DHT22;9741;51.020;5.304;2022-11-20T00:29:10;4.70;68.20
19214;DHT22;9741;51.020;5.304;2022-11-20T00:31:40;4.70;68.20
19214;DHT22;9741;51.020;5.304;2022-11-20T00:34:09;4.70;68.20
19214;DHT22;9741;51.020;5.304;2022-11-20T00:36:37;4.70;68.20
19214;DHT22;9741;51.020;5.304;2022-11-20T00:39:10;4.70;68.20
19214;DHT22;9741;51.020;5.304;2022-11-20T00:41:52;4.70;68.20
19214;DHT22;9741;51.020;5.304;2022-11-20T00:44:26;4.70;68.20
19214;DHT22;9741;51.020;5.304;2022-11-20T00:47:02;4.70;68.30
19214;DHT22;9741;51.020;5.304;2022-11-20T00:49:35;4.70;68.30
19214;DHT22;9741;51.020;5.304;2022-11-20T00:52:04;4.70;68.40
19214;DHT22;9741;51.020;5.304;2022-11-20T00:54:31;4.70;68.40
19214;DHT22;9741;51.020;5.304;2022-11-20T00:57:01;4.80;68.50
19214;DHT22;9741;51.020;5.304;2022-11-20T00:59:32;4.80;68.50
19214;DHT22;9741;51.020;5.304;2022-11-20T01:02:00;4.80;68.50
19214;DHT22;9741;51.020;5.304;2022-11-20T01:04:28;4.90;68.50
19214;DHT22;9741;51.020;5.304;2022-11-20T01:06:58;4.90;68.40
19214;DHT22;9741;51.020;5.304;2022-11-20T01:09:26;5.00;68.50
19214;DHT22;9741;51.020;5.304;2022-11-20T01:11:54;5.00;68.40
19214;DHT22;9741;51.020;5.304;2022-11-20T01:14:23;5.00;68.40
19214;DHT22;9741;51.020;5.304;2022-11-20T01:17:06;5.00;68.30
19214;DHT22;9741;51.020;5.304;2022-11-20T01:19:35;5.10;68.40
19214;DHT22;9741;51.020;5.304;2022-11-20T01:22:03;5.10;68.80
19214;DHT22;9741;51.020;5.304;2022-11-20T01:24:33;5.10;68.20
19214;DHT22;9741;51.020;5.304;2022-11-20T01:27:01;5.10;68.20
19214;DHT22;9741;51.020;5.304;2022-11-20T01:29:31;5.10;68.20
19214;DHT22;9741;51.020;5.304;2022-11-20T01:32:05;5.10;68.20
19214;DHT22;9741;51.020;5.304;2022-11-20T01:34:33;5.20;68.20
19214;DHT22;9741;51.020;5.304;2022-11-20T01:37:00;5.20;68.20
19214;DHT22;9741;51.020;5.304;2022-11-20T01:39:28;5.20;68.20
19214;DHT22;9741;51.020;5.304;2022-11-20T01:41:57;5.20;68.20
19214;DHT22;9741;51.020;5.304;2022-11-20T01:47:56;5.20;68.10
19214;DHT22;9741;51.020;5.304;2022-11-20T01:50:26;5.20;68.10
19214;DHT22;9741;51.020;5.304;2022-11-20T01:53:04;5.20;68.20
19214;DHT22;9741;51.020;5.304;2022-11-20T01:55:39;5.20;68.10
19214;DHT22;9741;51.020;5.304;2022-11-20T01:58:11;5.20;68.20
19214;DHT22;9741;51.020;5.304;2022-11-20T02:00:46;5.20;68.10
19214;DHT22;9741;51.020;5.304;2022-11-20T02:03:34;5.20;68.10
19214;DHT22;9741;51.020;5.304;2022-11-20T02:06:07;5.20;68.00
19214;DHT22;9741;51.020;5.304;2022-11-20T02:08:38;5.10;67.90
19214;DHT22;9741;51.020;5.304;2022-11-20T02:11:06;5.10;67.90
19214;DHT22;9741;51.020;5.304;2022-11-20T02:13:39;5.10;68.00
19214;DHT22;9741;51.020;5.304;2022-11-20T02:16:18;5.00;67.90
19214;DHT22;9741;51.020;5.304;2022-11-20T02:18:53;5.00;68.10
19214;DHT22;9741;51.020;5.304;2022-11-20T02:21:56;5.00;68.20
19214;DHT22;9741;51.020;5.304;2022-11-20T02:24:33;5.00;68.20
19214;DHT22;9741;51.020;5.304;2022-11-20T02:27:07;5.10;68.30
19214;DHT22;9741;51.020;5.304;2022-11-20T02:29:40;5.10;68.40
19214;DHT22;9741;51.020;5.304;2022-11-20T02:32:20;5.10;68.40
19214;DHT22;9741;51.020;5.304;2022-11-20T02:34:49;5.10;68.40
19214;DHT22;9741;51.020;5.304;2022-11-20T02:37:21;5.10;68.30
19214;DHT22;9741;51.020;5.304;2022-11-20T02:39:54;5.20;68.40
19214;DHT22;9741;51.020;5.304;2022-11-20T02:42:23;5.20;68.30
19214;DHT22;9741;51.020;5.304;2022-11-20T02:44:54;5.20;68.30
19214;DHT22;9741;51.020;5.304;2022-11-20T02:47:26;5.20;68.20
19214;DHT22;9741;51.020;5.304;2022-11-20T02:49:58;5.20;68.20
19214;DHT22;9741;51.020;5.304;2022-11-20T02:52:27;5.30;68.30
19214;DHT22;9741;51.020;5.304;2022-11-20T02:55:18;5.30;68.20
19214;DHT22;9741;51.020;5.304;2022-11-20T02:57:50;5.30;68.30
19214;DHT22;9741;51.020;5.304;2022-11-20T03:00:18;5.30;68.20
19214;DHT22;9741;51.020;5.304;2022-11-20T03:02:46;5.30;68.30
19214;DHT22;9741;51.020;5.304;2022-11-20T03:05:15;5.30;68.30
19214;DHT22;9741;51.020;5.304;2022-11-20T03:07:45;5.30;68.20
19214;DHT22;9741;51.020;5.304;2022-11-20T03:10:17;5.30;68.20
19214;DHT22;9741;51.020;5.304;2022-11-20T03:12:45;5.30;68.30
19214;DHT22;9741;51.020;5.304;2022-11-20T03:15:15;5.30;68.20
19214;DHT22;9741;51.020;5.304;2022-11-20T03:17:45;5.30;68.20
19214;DHT22;9741;51.020;5.304;2022-11-20T03:20:24;5.40;68.40
19214;DHT22;9741;51.020;5.304;2022-11-20T03:22:54;5.40;68.30
19214;DHT22;9741;51.020;5.304;2022-11-20T03:25:28;5.30;68.10
19214;DHT22;9741;51.020;5.304;2022-11-20T03:27:58;5.40;68.80
19214;DHT22;9741;51.020;5.304;2022-11-20T03:30:27;5.30;68.20
19214;DHT22;9741;51.020;5.304;2022-11-20T03:32:56;5.30;68.10
19214;DHT22;9741;51.020;5.304;2022-11-20T03:35:26;5.30;68.20
19214;DHT22;9741;51.020;5.304;2022-11-20T03:37:55;5.30;68.20
19214;DHT22;9741;51.020;5.304;2022-11-20T03:40:36;5.40;68.30
19214;DHT22;9741;51.020;5.304;2022-11-20T03:43:04;5.40;68.40
19214;DHT22;9741;51.020;5.304;2022-11-20T03:45:32;5.40;68.40
19214;DHT22;9741;51.020;5.304;2022-11-20T03:48:03;5.40;68.40
19214;DHT22;9741;51.020;5.304;2022-11-20T03:50:30;5.40;68.40
19214;DHT22;9741;51.020;5.304;2022-11-20T03:52:58;5.40;68.30
19214;DHT22;9741;51.020;5.304;2022-11-20T03:55:27;5.30;68.10
19214;DHT22;9741;51.020;5.304;2022-11-20T03:57:56;5.30;68.10
19214;DHT22;9741;51.020;5.304;2022-11-20T04:00:35;5.30;68.30
19214;DHT22;9741;51.020;5.304;2022-11-20T04:03:05;5.30;68.40
19214;DHT22;9741;51.020;5.304;2022-11-20T04:05:36;5.30;68.40
19214;DHT22;9741;51.020;5.304;2022-11-20T04:08:06;5.30;68.50
19214;DHT22;9741;51.020;5.304;2022-11-20T04:10:35;5.30;68.50
19214;DHT22;9741;51.020;5.304;2022-11-20T04:13:07;5.30;68.50
19214;DHT22;9741;51.020;5.304;2022-11-20T04:15:36;5.40;68.60
19214;DHT22;9741;51.020;5.304;2022-11-20T04:18:04;5.40;68.60
19214;DHT22;9741;51.020;5.304;2022-11-20T04:20:34;5.40;68.50
19214;DHT22;9741;51.020;5.304;2022-11-20T04:23:03;5.40;68.40
19214;DHT22;9741;51.020;5.304;2022-11-20T04:25:32;5.40;68.40
19214;DHT22;9741;51.020;5.304;2022-11-20T04:27:59;5.40;68.40
19214;DHT22;9741;51.020;5.304;2022-11-20T04:30:30;5.40;68.40
19214;DHT22;9741;51.020;5.304;2022-11-20T04:33:01;5.40;68.40
19214;DHT22;9741;51.020;5.304;2022-11-20T04:35:29;5.50;68.40
19214;DHT22;9741;51.020;5.304;2022-11-20T04:38:01;5.50;68.40
19214;DHT22;9741;51.020;5.304;2022-11-20T04:40:32;5.50;68.40
19214;DHT22;9741;51.020;5.304;2022-11-20T04:43:01;5.50;68.40
19214;DHT22;9741;51.020;5.304;2022-11-20T04:45:35;5.40;68.20
19214;DHT22;9741;51.020;5.304;2022-11-20T04:48:04;5.40;68.30
19214;DHT22;9741;51.020;5.304;2022-11-20T04:50:42;5.40;68.20
19214;DHT22;9741;51.020;5.304;2022-11-20T04:53:12;5.40;68.20
19214;DHT22;9741;51.020;5.304;2022-11-20T04:55:42;5.40;68.30
19214;DHT22;9741;51.020;5.304;2022-11-20T04:58:11;5.40;68.40
19214;DHT22;9741;51.020;5.304;2022-11-20T05:00:43;5.40;68.80
19214;DHT22;9741;51.020;5.304;2022-11-20T05:03:11;5.40;68.40
19214;DHT22;9741;51.020;5.304;2022-11-20T05:05:39;5.40;68.40
19214;DHT22;9741;51.020;5.304;2022-11-20T05:08:11;5.40;68.40
19214;DHT22;9741;51.020;5.304;2022-11-20T05:10:42;5.40;68.40
19214;DHT22;9741;51.020;5.304;2022-11-20T05:13:11;5.40;68.40
19214;DHT22;9741;51.020;5.304;2022-11-20T05:15:39;5.40;68.50
19214;DHT22;9741;51.020;5.304;2022-11-20T05:18:15;5.40;68.50
19214;DHT22;9741;51.020;5.304;2022-11-20T05:20:43;5.40;68.40
19214;DHT22;9741;51.020;5.304;2022-11-20T05:23:14;5.40;68.40
19214;DHT22;9741;51.020;5.304;2022-11-20T05:25:42;5.40;68.40
19214;DHT22;9741;51.020;5.304;2022-11-20T05:28:10;5.40;68.40
19214;DHT22;9741;51.020;5.304;2022-11-20T05:30:39;5.40;68.40
19214;DHT22;9741;51.020;5.304;2022-11-20T05:33:17;5.40;68.40
19214;DHT22;9741;51.020;5.304;2022-11-20T05:35:47;5.40;68.40
19214;DHT22;9741;51.020;5.304;2022-11-20T05:38:18;5.40;68.40
19214;DHT22;9741;51.020;5.304;2022-11-20T05:40:46;5.40;68.50
19214;DHT22;9741;51.020;5.304;2022-11-20T05:43:16;5.40;68.50
19214;DHT22;9741;51.020;5.304;2022-11-20T05:45:52;5.40;68.50
19214;DHT22;9741;51.020;5.304;2022-11-20T05:48:26;5.40;68.50
19214;DHT22;9741;51.020;5.304;2022-11-20T05:50:58;5.40;68.50
19214;DHT22;9741;51.020;5.304;2022-11-20T05:53:28;5.40;68.50
19214;DHT22;9741;51.020;5.304;2022-11-20T05:56:20;5.40;68.50
19214;DHT22;9741;51.020;5.304;2022-11-20T05:58:51;5.40;68.50
19214;DHT22;9741;51.020;5.304;2022-11-20T06:01:20;5.40;68.50
19214;DHT22;9741;51.020;5.304;2022-11-20T06:03:54;5.40;68.50
19214;DHT22;9741;51.020;5.304;2022-11-20T06:06:22;5.40;68.60
19214;DHT22;9741;51.020;5.304;2022-11-20T06:09:03;5.40;69.20
19214;DHT22;9741;51.020;5.304;2022-11-20T06:11:34;5.40;68.70
19214;DHT22;9741;51.020;5.304;2022-11-20T06:14:04;5.40;68.60
19214;DHT22;9741;51.020;5.304;2022-11-20T06:16:36;5.40;68.60
19214;DHT22;9741;51.020;5.304;2022-11-20T06:19:06;5.40;68.70
19214;DHT22;9741;51.020;5.304;2022-11-20T06:21:42;5.40;68.60
19214;DHT22;9741;51.020;5.304;2022-11-20T06:24:09;5.40;68.60
19214;DHT22;9741;51.020;5.304;2022-11-20T06:26:38;5.40;68.60
19214;DHT22;9741;51.020;5.304;2022-11-20T06:29:08;5.40;68.60
19214;DHT22;9741;51.020;5.304;2022-11-20T06:31:36;5.40;68.60
19214;DHT22;9741;51.020;5.304;2022-11-20T06:34:13;5.40;68.60
19214;DHT22;9741;51.020;5.304;2022-11-20T06:36:41;5.40;68.60
19214;DHT22;9741;51.020;5.304;2022-11-20T06:39:10;5.40;68.60
19214;DHT22;9741;51.020;5.304;2022-11-20T06:41:43;5.40;68.60
19214;DHT22;9741;51.020;5.304;2022-11-20T06:44:14;5.40;68.60
19214;DHT22;9741;51.020;5.304;2022-11-20T06:46:41;5.50;68.80
19214;DHT22;9741;51.020;5.304;2022-11-20T06:49:25;5.50;68.80
19214;DHT22;9741;51.020;5.304;2022-11-20T06:51:53;5.50;69.30
19214;DHT22;9741;51.020;5.304;2022-11-20T06:54:21;5.50;68.70
19214;DHT22;9741;51.020;5.304;2022-11-20T06:57:03;5.50;68.70
19214;DHT22;9741;51.020;5.304;2022-11-20T06:59:32;5.50;68.80
19214;DHT22;9741;51.020;5.304;2022-11-20T07:02:11;5.50;68.80
19214;DHT22;9741;51.020;5.304;2022-11-20T07:04:42;5.50;68.80
19214;DHT22;9741;51.020;5.304;2022-11-20T07:07:09;5.50;68.80
19214;DHT22;9741;51.020;5.304;2022-11-20T07:09:37;5.50;68.80
19214;DHT22;9741;51.020;5.304;2022-11-20T07:12:07;5.50;68.80
19214;DHT22;9741;51.020;5.304;2022-11-20T07:14:35;5.50;68.80
19214;DHT22;9741;51.020;5.304;2022-11-20T07:17:03;5.50;68.80
19214;DHT22;9741;51.020;5.304;2022-11-20T07:19:30;5.50;68.90
19214;DHT22;9741;51.020;5.304;2022-11-20T07:22:01;5.50;68.80
19214;DHT22;9741;51.020;5.304;2022-11-20T07:24:29;5.50;68.80
19214;DHT22;9741;51.020;5.304;2022-11-20T07:26:57;5.50;68.80
19214;DHT22;9741;51.020;5.304;2022-11-20T07:29:33;5.50;68.80
19214;DHT22;9741;51.020;5.304;2022-11-20T07:32:06;5.50;68.90
19214;DHT22;9741;51.020;5.304;2022-11-20T07:34:33;5.60;69.00
19214;DHT22;9741;51.020;5.304;2022-11-20T07:37:08;5.60;68.90
19214;DHT22;9741;51.020;5.304;2022-11-20T07:39:39;5.60;68.90
19214;DHT22;9741;51.020;5.304;2022-11-20T07:42:07;5.60;68.90
19214;DHT22;9741;51.020;5.304;2022-11-20T07:44:39;5.60;69.00
19214;DHT22;9741;51.020;5.304;2022-11-20T07:47:09;5.60;69.10
19214;DHT22;9741;51.020;5.304;2022-11-20T07:49:36;5.60;69.10
19214;DHT22;9741;51.020;5.304;2022-11-20T07:52:04;5.60;69.20
19214;DHT22;9741;51.020;5.304;2022-11-20T07:54:59;5.70;69.30
19214;DHT22;9741;51.020;5.304;2022-11-20T07:57:27;5.70;69.30
19214;DHT22;9741;51.020;5.304;2022-11-20T07:59:55;5.80;69.40
19214;DHT22;9741;51.020;5.304;2022-11-20T08:02:25;5.80;69.50
19214;DHT22;9741;51.020;5.304;2022-11-20T08:04:54;5.90;69.60
19214;DHT22;9741;51.020;5.304;2022-11-20T08:07:23;6.00;69.70
19214;DHT22;9741;51.020;5.304;2022-11-20T08:09:54;6.10;69.60
19214;DHT22;9741;51.020;5.304;2022-11-20T08:12:22;6.20;69.50
19214;DHT22;9741;51.020;5.304;2022-11-20T08:15:14;6.30;69.50
19214;DHT22;9741;51.020;5.304;2022-11-20T08:17:45;6.30;69.30
19214;DHT22;9741;51.020;5.304;2022-11-20T08:20:13;6.40;69.30
19214;DHT22;9741;51.020;5.304;2022-11-20T08:22:42;6.40;69.20
19214;DHT22;9741;51.020;5.304;2022-11-20T08:25:23;6.40;69.20
19214;DHT22;9741;51.020;5.304;2022-11-20T08:27:51;6.40;69.20
19214;DHT22;9741;51.020;5.304;2022-11-20T08:30:18;6.50;69.30
19214;DHT22;9741;51.020;5.304;2022-11-20T08:32:46;6.50;69.40
19214;DHT22;9741;51.020;5.304;2022-11-20T08:35:15;6.50;69.30
19214;DHT22;9741;51.020;5.304;2022-11-20T08:37:46;6.60;69.50
19214;DHT22;9741;51.020;5.304;2022-11-20T08:40:28;6.70;69.50
19214;DHT22;9741;51.020;5.304;2022-11-20T08:42:57;6.70;69.50
19214;DHT22;9741;51.020;5.304;2022-11-20T08:45:24;6.80;69.50
19214;DHT22;9741;51.020;5.304;2022-11-20T08:47:59;6.80;69.40
19214;DHT22;9741;51.020;5.304;2022-11-20T08:50:30;6.90;69.40
19214;DHT22;9741;51.020;5.304;2022-11-20T08:53:06;6.90;69.30
19214;DHT22;9741;51.020;5.304;2022-11-20T08:55:49;7.00;69.30
19214;DHT22;9741;51.020;5.304;2022-11-20T08:58:17;7.00;69.30
19214;DHT22;9741;51.020;5.304;2022-11-20T09:00:45;7.00;69.20
19214;DHT22;9741;51.020;5.304;2022-11-20T09:03:16;7.00;69.20
19214;DHT22;9741;51.020;5.304;2022-11-20T09:05:43;7.10;69.30
19214;DHT22;9741;51.020;5.304;2022-11-20T09:08:19;7.10;69.30
19214;DHT22;9741;51.020;5.304;2022-11-20T09:10:52;7.10;69.20
19214;DHT22;9741;51.020;5.304;2022-11-20T09:13:28;7.20;69.40
19214;DHT22;9741;51.020;5.304;2022-11-20T09:15:58;7.20;69.30
19214;DHT22;9741;51.020;5.304;2022-11-20T09:18:29;7.20;69.30
19214;DHT22;9741;51.020;5.304;2022-11-20T09:21:05;7.30;69.40
19214;DHT22;9741;51.020;5.304;2022-11-20T09:23:36;7.40;69.50
19214;DHT22;9741;51.020;5.304;2022-11-20T09:26:12;7.40;69.40
19214;DHT22;9741;51.020;5.304;2022-11-20T09:28:40;7.50;69.40
19214;DHT22;9741;51.020;5.304;2022-11-20T09:31:17;7.50;69.40
19214;DHT22;9741;51.020;5.304;2022-11-20T09:33:49;7.60;69.50
19214;DHT22;9741;51.020;5.304;2022-11-20T09:36:20;7.70;69.40
19214;DHT22;9741;51.020;5.304;2022-11-20T09:38:49;7.80;69.50
19214;DHT22;9741;51.020;5.304;2022-11-20T09:41:56;7.80;69.30
19214;DHT22;9741;51.020;5.304;2022-11-20T09:44:43;7.90;69.30
19214;DHT22;9741;51.020;5.304;2022-11-20T09:47:32;7.90;69.10
19214;DHT22;9741;51.020;5.304;2022-11-20T09:50:20;7.90;69.20
19214;DHT22;9741;51.020;5.304;2022-11-20T09:53:01;8.00;69.30
19214;DHT22;9741;51.020;5.304;2022-11-20T09:55:39;8.10;69.30
19214;DHT22;9741;51.020;5.304;2022-11-20T09:58:32;8.10;69.30
19214;DHT22;9741;51.020;5.304;2022-11-20T10:01:10;8.20;69.30
19214;DHT22;9741;51.020;5.304;2022-11-20T10:03:51;8.20;69.30
19214;DHT22;9741;51.020;5.304;2022-11-20T10:06:28;8.20;69.10
19214;DHT22;9741;51.020;5.304;2022-11-20T10:09:04;8.20;69.10
19214;DHT22;9741;51.020;5.304;2022-11-20T10:11:44;8.20;69.10
19214;DHT22;9741;51.020;5.304;2022-11-20T10:14:26;8.30;69.20
19214;DHT22;9741;51.020;5.304;2022-11-20T10:17:03;8.30;69.10
19214;DHT22;9741;51.020;5.304;2022-11-20T10:19:52;8.30;69.10
19214;DHT22;9741;51.020;5.304;2022-11-20T10:22:42;8.30;69.10
19214;DHT22;9741;51.020;5.304;2022-11-20T10:25:17;8.30;69.20
19214;DHT22;9741;51.020;5.304;2022-11-20T10:31:00;8.30;69.00
19214;DHT22;9741;51.020;5.304;2022-11-20T10:33:45;8.30;69.20
19214;DHT22;9741;51.020;5.304;2022-11-20T10:36:25;8.30;69.20
19214;DHT22;9741;51.020;5.304;2022-11-20T10:38:58;8.40;69.30
19214;DHT22;9741;51.020;5.304;2022-11-20T10:41:29;8.40;69.30
19214;DHT22;9741;51.020;5.304;2022-11-20T10:44:12;8.40;69.20
19214;DHT22;9741;51.020;5.304;2022-11-20T10:47:16;8.40;69.20
19214;DHT22;9741;51.020;5.304;2022-11-20T10:49:50;8.50;69.30
19214;DHT22;9741;51.020;5.304;2022-11-20T10:52:36;8.50;69.40
19214;DHT22;9741;51.020;5.304;2022-11-20T10:55:25;8.50;69.30
19214;DHT22;9741;51.020;5.304;2022-11-20T10:58:08;8.60;69.30
19214;DHT22;9741;51.020;5.304;2022-11-20T11:00:37;8.60;69.30
19214;DHT22;9741;51.020;5.304;2022-11-20T11:03:20;8.60;69.30
19214;DHT22;9741;51.020;5.304;2022-11-20T11:05:53;8.60;69.30
19214;DHT22;9741;51.020;5.304;2022-11-20T11:08:28;8.70;69.40
19214;DHT22;9741;51.020;5.304;2022-11-20T11:11:13;8.70;69.40
19214;DHT22;9741;51.020;5.304;2022-11-20T11:13:44;8.80;69.50
19214;DHT22;9741;51.020;5.304;2022-11-20T11:16:20;8.80;69.40
19214;DHT22;9741;51.020;5.304;2022-11-20T11:19:06;8.90;69.50
19214;DHT22;9741;51.020;5.304;2022-11-20T11:21:36;8.90;69.60
19214;DHT22;9741;51.020;5.304;2022-11-20T11:24:20;9.00;69.60
19214;DHT22;9741;51.020;5.304;2022-11-20T11:26:56;9.10;69.60
19214;DHT22;9741;51.020;5.304;2022-11-20T11:29:26;9.20;69.50
19214;DHT22;9741;51.020;5.304;2022-11-20T11:32:11;9.20;69.40
19214;DHT22;9741;51.020;5.304;2022-11-20T11:34:59;9.30;69.40
19214;DHT22;9741;51.020;5.304;2022-11-20T11:37:36;9.30;69.40
19214;DHT22;9741;51.020;5.304;2022-11-20T11:40:08;9.40;69.40
19214;DHT22;9741;51.020;5.304;2022-11-20T11:42:42;9.40;69.40
19214;DHT22;9741;51.020;5.304;2022-11-20T11:45:15;9.50;69.50
19214;DHT22;9741;51.020;5.304;2022-11-20T11:47:48;9.50;69.40
19214;DHT22;9741;51.020;5.304;2022-11-20T11:50:30;9.50;69.40
19214;DHT22;9741;51.020;5.304;2022-11-20T11:53:09;9.60;69.50
19214;DHT22;9741;51.020;5.304;2022-11-20T11:55:45;9.60;69.40
19214;DHT22;9741;51.020;5.304;2022-11-20T11:58:34;9.60;69.40
19214;DHT22;9741;51.020;5.304;2022-11-20T12:01:20;9.70;69.50
19214;DHT22;9741;51.020;5.304;2022-11-20T12:03:59;9.70;69.50
19214;DHT22;9741;51.020;5.304;2022-11-20T12:06:46;9.70;69.50
19214;DHT22;9741;51.020;5.304;2022-11-20T12:09:17;9.80;69.60
19214;DHT22;9741;51.020;5.304;2022-11-20T12:11:52;9.80;69.70
19214;DHT22;9741;51.020;5.304;2022-11-20T12:14:26;9.90;69.60
19214;DHT22;9741;51.020;5.304;2022-11-20T12:17:00;10.00;68.80
19214;DHT22;9741;51.020;5.304;2022-11-20T12:19:34;10.10;68.90
19214;DHT22;9741;51.020;5.304;2022-11-20T12:22:25;10.20;68.90
19214;DHT22;9741;51.020;5.304;2022-11-20T12:25:01;10.30;69.00
19214;DHT22;9741;51.020;5.304;2022-11-20T12:28:17;10.40;69.00
19214;DHT22;9741;51.020;5.304;2022-11-20T12:31:16;10.50;68.70
19214;DHT22;9741;51.020;5.304;2022-11-20T12:34:33;10.50;68.70
19214;DHT22;9741;51.020;5.304;2022-11-20T12:37:37;10.50;68.80
19214;DHT22;9741;51.020;5.304;2022-11-20T12:40:45;10.60;69.00
19214;DHT22;9741;51.020;5.304;2022-11-20T12:43:23;10.70;69.10
19214;DHT22;9741;51.020;5.304;2022-11-20T12:46:22;10.80;69.10
19214;DHT22;9741;51.020;5.304;2022-11-20T12:49:12;10.90;69.10
19214;DHT22;9741;51.020;5.304;2022-11-20T12:52:13;11.00;69.00
19214;DHT22;9741;51.020;5.304;2022-11-20T12:55:21;11.00;68.90
19214;DHT22;9741;51.020;5.304;2022-11-20T12:58:11;11.10;69.00
19214;DHT22;9741;51.020;5.304;2022-11-20T13:00:49;11.10;68.90
19214;DHT22;9741;51.020;5.304;2022-11-20T13:03:36;11.10;69.00
19214;DHT22;9741;51.020;5.304;2022-11-20T13:06:24;11.10;69.00
19214;DHT22;9741;51.020;5.304;2022-11-20T13:08:55;11.20;69.10
19214;DHT22;9741;51.020;5.304;2022-11-20T13:11:34;11.20;69.00
19214;DHT22;9741;51.020;5.304;2022-11-20T13:14:18;11.20;68.90
19214;DHT22;9741;51.020;5.304;2022-11-20T13:17:02;11.10;68.80
19214;DHT22;9741;51.020;5.304;2022-11-20T13:19:34;11.10;68.70
19214;DHT22;9741;51.020;5.304;2022-11-20T13:22:03;11.10;68.60
19214;DHT22;9741;51.020;5.304;2022-11-20T13:24:34;11.10;68.60
19214;DHT22;9741;51.020;5.304;2022-11-20T13:27:26;11.00;68.50
19214;DHT22;9741;51.020;5.304;2022-11-20T13:30:13;11.00;68.50
19214;DHT22;9741;51.020;5.304;2022-11-20T13:32:55;10.90;68.40
19214;DHT22;9741;51.020;5.304;2022-11-20T13:35:30;10.80;68.30
19214;DHT22;9741;51.020;5.304;2022-11-20T13:38:06;10.70;68.20
19214;DHT22;9741;51.020;5.304;2022-11-20T13:40:55;10.70;68.20
19214;DHT22;9741;51.020;5.304;2022-11-20T13:43:33;10.60;68.20
19214;DHT22;9741;51.020;5.304;2022-11-20T13:46:07;10.50;68.10
19214;DHT22;9741;51.020;5.304;2022-11-20T13:48:40;10.40;68.10
19214;DHT22;9741;51.020;5.304;2022-11-20T13:51:20;10.30;68.00
19214;DHT22;9741;51.020;5.304;2022-11-20T13:57:11;10.00;68.10
19214;DHT22;9741;51.020;5.304;2022-11-20T13:59:57;9.90;69.20
19214;DHT22;9741;51.020;5.304;2022-11-20T14:02:27;9.90;69.40
19214;DHT22;9741;51.020;5.304;2022-11-20T14:04:59;9.80;69.40
19214;DHT22;9741;51.020;5.304;2022-11-20T14:07:35;9.70;69.50
19214;DHT22;9741;51.020;5.304;2022-11-20T14:10:05;9.70;69.60
19214;DHT22;9741;51.020;5.304;2022-11-20T14:12:43;9.60;69.70
19214;DHT22;9741;51.020;5.304;2022-11-20T14:15:29;9.60;69.80
19214;DHT22;9741;51.020;5.304;2022-11-20T14:17:57;9.60;69.90
19214;DHT22;9741;51.020;5.304;2022-11-20T14:20:27;9.60;70.00
19214;DHT22;9741;51.020;5.304;2022-11-20T14:22:59;9.60;70.00
19214;DHT22;9741;51.020;5.304;2022-11-20T14:25:28;9.60;70.10
19214;DHT22;9741;51.020;5.304;2022-11-20T14:28:01;9.60;70.20
19214;DHT22;9741;51.020;5.304;2022-11-20T14:30:43;9.60;70.20
19214;DHT22;9741;51.020;5.304;2022-11-20T14:33:16;9.60;70.20
19214;DHT22;9741;51.020;5.304;2022-11-20T14:35:48;9.60;70.20
19214;DHT22;9741;51.020;5.304;2022-11-20T14:38:24;9.50;70.10
19214;DHT22;9741;51.020;5.304;2022-11-20T14:41:05;9.50;70.20
19214;DHT22;9741;51.020;5.304;2022-11-20T14:43:36;9.50;70.20
19214;DHT22;9741;51.020;5.304;2022-11-20T14:46:29;9.40;70.20
19214;DHT22;9741;51.020;5.304;2022-11-20T14:49:01;9.40;70.20
19214;DHT22;9741;51.020;5.304;2022-11-20T14:51:35;9.40;70.40
19214;DHT22;9741;51.020;5.304;2022-11-20T14:54:10;9.30;70.40
19214;DHT22;9741;51.020;5.304;2022-11-20T14:56:39;9.30;70.40
19214;DHT22;9741;51.020;5.304;2022-11-20T14:59:09;9.30;70.40
19214;DHT22;9741;51.020;5.304;2022-11-20T15:01:39;9.30;70.50
19214;DHT22;9741;51.020;5.304;2022-11-20T15:04:09;9.20;70.40
19214;DHT22;9741;51.020;5.304;2022-11-20T15:06:48;9.20;70.40
19214;DHT22;9741;51.020;5.304;2022-11-20T15:09:18;9.20;70.50
19214;DHT22;9741;51.020;5.304;2022-11-20T15:11:54;9.20;70.60
19214;DHT22;9741;51.020;5.304;2022-11-20T15:14:25;9.10;70.60
19214;DHT22;9741;51.020;5.304;2022-11-20T15:17:02;9.10;70.60
19214;DHT22;9741;51.020;5.304;2022-11-20T15:19:32;9.10;70.60
19214;DHT22;9741;51.020;5.304;2022-11-20T15:22:07;9.00;70.50
19214;DHT22;9741;51.020;5.304;2022-11-20T15:24:44;9.00;70.70
19214;DHT22;9741;51.020;5.304;2022-11-20T15:27:11;9.00;70.80
19214;DHT22;9741;51.020;5.304;2022-11-20T15:29:42;9.00;70.90
19214;DHT22;9741;51.020;5.304;2022-11-20T15:32:13;9.00;70.80
19214;DHT22;9741;51.020;5.304;2022-11-20T15:34:46;9.00;70.80
19214;DHT22;9741;51.020;5.304;2022-11-20T15:37:14;8.90;70.70
19214;DHT22;9741;51.020;5.304;2022-11-20T15:39:44;8.90;70.80
19214;DHT22;9741;51.020;5.304;2022-11-20T15:42:11;8.90;70.90
19214;DHT22;9741;51.020;5.304;2022-11-20T15:44:39;8.90;71.00
19214;DHT22;9741;51.020;5.304;2022-11-20T15:47:12;8.90;71.00
19214;DHT22;9741;51.020;5.304;2022-11-20T15:49:40;8.90;71.10
19214;DHT22;9741;51.020;5.304;2022-11-20T15:52:10;8.90;71.20
19214;DHT22;9741;51.020;5.304;2022-11-20T15:54:38;8.90;71.20
19214;DHT22;9741;51.020;5.304;2022-11-20T15:57:07;8.90;71.30
19214;DHT22;9741;51.020;5.304;2022-11-20T15:59:36;8.90;71.30
19214;DHT22;9741;51.020;5.304;2022-11-20T16:02:11;8.90;71.40
19214;DHT22;9741;51.020;5.304;2022-11-20T16:04:39;8.90;71.40
19214;DHT22;9741;51.020;5.304;2022-11-20T16:07:11;8.90;71.50
19214;DHT22;9741;51.020;5.304;2022-11-20T16:09:40;8.90;71.50
19214;DHT22;9741;51.020;5.304;2022-11-20T16:12:09;8.90;71.50
19214;DHT22;9741;51.020;5.304;2022-11-20T16:14:59;9.00;71.60
19214;DHT22;9741;51.020;5.304;2022-11-20T16:17:45;9.00;71.60
19214;DHT22;9741;51.020;5.304;2022-11-20T16:20:13;9.00;71.70
19214;DHT22;9741;51.020;5.304;2022-11-20T16:22:41;9.00;71.70
19214;DHT22;9741;51.020;5.304;2022-11-20T16:25:09;9.10;71.90
19214;DHT22;9741;51.020;5.304;2022-11-20T16:27:39;9.10;71.90
19214;DHT22;9741;51.020;5.304;2022-11-20T16:30:09;9.10;71.90
19214;DHT22;9741;51.020;5.304;2022-11-20T16:32:38;9.20;72.00
19214;DHT22;9741;51.020;5.304;2022-11-20T16:35:10;9.20;72.00
19214;DHT22;9741;51.020;5.304;2022-11-20T16:37:39;9.20;72.00
19214;DHT22;9741;51.020;5.304;2022-11-20T16:40:11;9.30;72.10
19214;DHT22;9741;51.020;5.304;2022-11-20T16:42:39;9.30;72.20
19214;DHT22;9741;51.020;5.304;2022-11-20T16:45:10;9.30;72.10
19214;DHT22;9741;51.020;5.304;2022-11-20T16:47:39;9.40;72.20
19214;DHT22;9741;51.020;5.304;2022-11-20T16:50:22;9.40;72.20
19214;DHT22;9741;51.020;5.304;2022-11-20T16:52:50;9.50;72.30
19214;DHT22;9741;51.020;5.304;2022-11-20T16:55:19;9.50;72.30